sensor_id;sensor_type;location;lat;lon;timestamp;temperature;humidity
49184;DHT22;35021;49.214;12.270;2023-04-24T00:01:04;20.50;49.40
49184;DHT22;35021;49.214;12.270;2023-04-24T00:03:34;20.50;49.30
49184;DHT22;35021;49.214;12.270;2023-04-24T00:06:02;20.50;49.30
49184;DHT22;35021;49.214;12.270;2023-04-24T00:08:29;20.50;49.30
49184;DHT22;35021;49.214;12.270;2023-04-24T00:10:56;20.50;49.30
49184;DHT22;35021;49.214;12.270;2023-04-24T00:13:23;20.50;49.30
49184;DHT22;35021;49.214;12.270;2023-04-24T00:15:50;20.50;49.90
49184;DHT22;35021;49.214;12.270;2023-04-24T00:18:17;20.50;49.20
49184;DHT22;35021;49.214;12.270;2023-04-24T00:20:44;20.50;49.20
49184;DHT22;35021;49.214;12.270;2023-04-24T00:23:11;20.50;49.20
49184;DHT22;35021;49.214;12.270;2023-04-24T00:25:38;20.50;49.20
49184;DHT22;35021;49.214;12.270;2023-04-24T00:28:05;20.40;49.20
49184;DHT22;35021;49.214;12.270;2023-04-24T00:30:33;20.40;49.30
49184;DHT22;35021;49.214;12.270;2023-04-24T00:33:00;20.40;49.40
49184;DHT22;35021;49.214;12.270;2023-04-24T00:35:27;20.40;49.50
49184;DHT22;35021;49.214;12.270;2023-04-24T00:37:54;20.30;49.60
49184;DHT22;35021;49.214;12.270;2023-04-24T00:40:21;20.30;49.60
49184;DHT22;35021;49.214;12.270;2023-04-24T00:42:48;20.30;49.70
49184;DHT22;35021;49.214;12.270;2023-04-24T00:45:16;20.30;49.80
49184;DHT22;35021;49.214;12.270;2023-04-24T00:47:43;20.30;49.80
49184;DHT22;35021;49.214;12.270;2023-04-24T00:50:10;20.30;49.80
49184;DHT22;35021;49.214;12.270;2023-04-24T00:52:38;20.30;49.80
49184;DHT22;35021;49.214;12.270;2023-04-24T00:55:07;20.30;49.90
49184;DHT22;35021;49.214;12.270;2023-04-24T00:57:34;20.30;49.90
49184;DHT22;35021;49.214;12.270;2023-04-24T01:00:02;20.30;49.90
49184;DHT22;35021;49.214;12.270;2023-04-24T01:02:30;20.30;49.90
49184;DHT22;35021;49.214;12.270;2023-04-24T01:04:57;20.30;50.00
49184;DHT22;35021;49.214;12.270;2023-04-24T01:07:24;20.30;49.90
49184;DHT22;35021;49.214;12.270;2023-04-24T01:09:52;20.30;50.00
49184;DHT22;35021;49.214;12.270;2023-04-24T01:12:19;20.30;50.00
49184;DHT22;35021;49.214;12.270;2023-04-24T01:14:46;20.30;49.90
49184;DHT22;35021;49.214;12.270;2023-04-24T01:17:15;20.30;49.90
49184;DHT22;35021;49.214;12.270;2023-04-24T01:19:42;20.30;49.90
49184;DHT22;35021;49.214;12.270;2023-04-24T01:22:16;20.30;49.90
49184;DHT22;35021;49.214;12.270;2023-04-24T01:24:45;20.30;49.90
49184;DHT22;35021;49.214;12.270;2023-04-24T01:27:13;20.30;49.90
49184;DHT22;35021;49.214;12.270;2023-04-24T01:29:40;20.30;49.80
49184;DHT22;35021;49.214;12.270;2023-04-24T01:32:07;20.40;49.80
49184;DHT22;35021;49.214;12.270;2023-04-24T01:34:34;20.40;49.80
49184;DHT22;35021;49.214;12.270;2023-04-24T01:37:04;20.40;49.70
49184;DHT22;35021;49.214;12.270;2023-04-24T01:39:32;20.40;49.70
49184;DHT22;35021;49.214;12.270;2023-04-24T01:42:00;20.40;49.70
49184;DHT22;35021;49.214;12.270;2023-04-24T01:44:28;20.40;49.70
49184;DHT22;35021;49.214;12.270;2023-04-24T01:46:56;20.40;49.70
49184;DHT22;35021;49.214;12.270;2023-04-24T01:49:23;20.40;49.70
49184;DHT22;35021;49.214;12.270;2023-04-24T01:51:50;20.40;49.70
49184;DHT22;35021;49.214;12.270;2023-04-24T01:54:17;20.40;49.70
49184;DHT22;35021;49.214;12.270;2023-04-24T01:56:44;20.40;49.70
49184;DHT22;35021;49.214;12.270;2023-04-24T01:59:12;20.40;49.70
49184;DHT22;35021;49.214;12.270;2023-04-24T02:01:39;20.40;49.70
49184;DHT22;35021;49.214;12.270;2023-04-24T02:04:07;20.40;49.70
49184;DHT22;35021;49.214;12.270;2023-04-24T02:06:35;20.40;49.70
49184;DHT22;35021;49.214;12.270;2023-04-24T02:09:02;20.30;49.70
49184;DHT22;35021;49.214;12.270;2023-04-24T02:11:30;20.30;49.80
49184;DHT22;35021;49.214;12.270;2023-04-24T02:13:57;20.30;49.80
49184;DHT22;35021;49.214;12.270;2023-04-24T02:16:24;20.30;49.90
49184;DHT22;35021;49.214;12.270;2023-04-24T02:18:52;20.30;49.90
49184;DHT22;35021;49.214;12.270;2023-04-24T02:21:19;20.20;49.90
49184;DHT22;35021;49.214;12.270;2023-04-24T02:23:45;20.20;49.90
49184;DHT22;35021;49.214;12.270;2023-04-24T02:26:12;20.20;49.80
49184;DHT22;35021;49.214;12.270;2023-04-24T02:28:39;20.30;49.80
49184;DHT22;35021;49.214;12.270;2023-04-24T02:31:06;20.30;49.60
49184;DHT22;35021;49.214;12.270;2023-04-24T02:33:33;20.40;49.50
49184;DHT22;35021;49.214;12.270;2023-04-24T02:36:01;20.50;49.40
49184;DHT22;35021;49.214;12.270;2023-04-24T02:38:28;20.60;49.20
49184;DHT22;35021;49.214;12.270;2023-04-24T02:40:55;20.70;49.00
49184;DHT22;35021;49.214;12.270;2023-04-24T02:43:22;20.70;48.80
49184;DHT22;35021;49.214;12.270;2023-04-24T02:45:49;20.80;48.60
49184;DHT22;35021;49.214;12.270;2023-04-24T02:48:16;20.90;48.50
49184;DHT22;35021;49.214;12.270;2023-04-24T02:50:44;21.00;48.40
49184;DHT22;35021;49.214;12.270;2023-04-24T02:53:10;21.00;48.20
49184;DHT22;35021;49.214;12.270;2023-04-24T02:55:37;21.10;48.10
49184;DHT22;35021;49.214;12.270;2023-04-24T02:58:04;21.10;48.00
49184;DHT22;35021;49.214;12.270;2023-04-24T03:00:33;21.20;47.90
49184;DHT22;35021;49.214;12.270;2023-04-24T03:02:59;21.30;47.80
49184;DHT22;35021;49.214;12.270;2023-04-24T03:05:27;21.30;47.60
49184;DHT22;35021;49.214;12.270;2023-04-24T03:07:54;21.30;47.50
49184;DHT22;35021;49.214;12.270;2023-04-24T03:10:21;21.40;47.50
49184;DHT22;35021;49.214;12.270;2023-04-24T03:12:49;21.30;47.50
49184;DHT22;35021;49.214;12.270;2023-04-24T03:15:16;21.30;47.50
49184;DHT22;35021;49.214;12.270;2023-04-24T03:17:43;21.30;47.60
49184;DHT22;35021;49.214;12.270;2023-04-24T03:20:10;21.20;47.70
49184;DHT22;35021;49.214;12.270;2023-04-24T03:22:36;21.10;47.80
49184;DHT22;35021;49.214;12.270;2023-04-24T03:25:04;21.10;48.00
49184;DHT22;35021;49.214;12.270;2023-04-24T03:27:31;21.00;48.20
49184;DHT22;35021;49.214;12.270;2023-04-24T03:29:58;20.90;48.30
49184;DHT22;35021;49.214;12.270;2023-04-24T03:32:25;20.90;48.40
49184;DHT22;35021;49.214;12.270;2023-04-24T03:34:52;20.90;48.30
49184;DHT22;35021;49.214;12.270;2023-04-24T03:37:19;20.90;48.20
49184;DHT22;35021;49.214;12.270;2023-04-24T03:39:46;20.90;48.10
49184;DHT22;35021;49.214;12.270;2023-04-24T03:42:13;21.00;48.00
49184;DHT22;35021;49.214;12.270;2023-04-24T03:44:39;21.00;47.90
49184;DHT22;35021;49.214;12.270;2023-04-24T03:47:06;21.10;47.90
49184;DHT22;35021;49.214;12.270;2023-04-24T03:49:33;21.10;47.80
49184;DHT22;35021;49.214;12.270;2023-04-24T03:52:01;21.10;47.70
49184;DHT22;35021;49.214;12.270;2023-04-24T03:54:28;21.10;47.60
49184;DHT22;35021;49.214;12.270;2023-04-24T03:56:55;21.10;47.50
49184;DHT22;35021;49.214;12.270;2023-04-24T03:59:23;21.10;47.50
49184;DHT22;35021;49.214;12.270;2023-04-24T04:01:50;21.10;47.50
49184;DHT22;35021;49.214;12.270;2023-04-24T04:04:17;21.10;47.40
49184;DHT22;35021;49.214;12.270;2023-04-24T04:06:44;21.10;47.50
49184;DHT22;35021;49.214;12.270;2023-04-24T04:09:13;21.00;47.60
49184;DHT22;35021;49.214;12.270;2023-04-24T04:11:40;20.90;47.70
49184;DHT22;35021;49.214;12.270;2023-04-24T04:14:07;20.90;47.80
49184;DHT22;35021;49.214;12.270;2023-04-24T04:16:33;20.90;47.80
49184;DHT22;35021;49.214;12.270;2023-04-24T04:19:00;20.90;48.50
49184;DHT22;35021;49.214;12.270;2023-04-24T04:21:27;20.90;47.80
49184;DHT22;35021;49.214;12.270;2023-04-24T04:23:54;20.90;47.80
49184;DHT22;35021;49.214;12.270;2023-04-24T04:26:23;20.90;47.80
49184;DHT22;35021;49.214;12.270;2023-04-24T04:28:53;20.90;47.80
49184;DHT22;35021;49.214;12.270;2023-04-24T04:31:20;20.90;47.70
49184;DHT22;35021;49.214;12.270;2023-04-24T04:33:47;21.00;47.70
49184;DHT22;35021;49.214;12.270;2023-04-24T04:36:15;21.00;47.70
49184;DHT22;35021;49.214;12.270;2023-04-24T04:38:43;21.10;47.70
49184;DHT22;35021;49.214;12.270;2023-04-24T04:41:11;21.10;47.60
49184;DHT22;35021;49.214;12.270;2023-04-24T04:43:38;21.20;47.60
49184;DHT22;35021;49.214;12.270;2023-04-24T04:46:07;21.20;47.50
49184;DHT22;35021;49.214;12.270;2023-04-24T04:48:35;21.20;47.40
49184;DHT22;35021;49.214;12.270;2023-04-24T04:51:02;21.20;47.40
49184;DHT22;35021;49.214;12.270;2023-04-24T04:53:28;21.20;47.40
49184;DHT22;35021;49.214;12.270;2023-04-24T04:55:55;21.30;47.40
49184;DHT22;35021;49.214;12.270;2023-04-24T04:58:22;21.20;47.50
49184;DHT22;35021;49.214;12.270;2023-04-24T05:00:49;21.20;47.60
49184;DHT22;35021;49.214;12.270;2023-04-24T05:03:16;21.10;47.60
49184;DHT22;35021;49.214;12.270;2023-04-24T05:05:47;21.10;47.60
49184;DHT22;35021;49.214;12.270;2023-04-24T05:08:14;21.10;47.60
49184;DHT22;35021;49.214;12.270;2023-04-24T05:10:54;21.10;47.60
49184;DHT22;35021;49.214;12.270;2023-04-24T05:13:22;21.20;47.70
49184;DHT22;35021;49.214;12.270;2023-04-24T05:16:05;21.20;47.60
49184;DHT22;35021;49.214;12.270;2023-04-24T05:18:32;21.20;47.60
49184;DHT22;35021;49.214;12.270;2023-04-24T05:20:59;21.20;47.50
49184;DHT22;35021;49.214;12.270;2023-04-24T05:23:26;21.20;47.40
49184;DHT22;35021;49.214;12.270;2023-04-24T05:25:52;21.30;47.40
49184;DHT22;35021;49.214;12.270;2023-04-24T05:28:19;21.30;47.30
49184;DHT22;35021;49.214;12.270;2023-04-24T05:30:47;21.30;47.30
49184;DHT22;35021;49.214;12.270;2023-04-24T05:33:14;21.30;47.20
49184;DHT22;35021;49.214;12.270;2023-04-24T05:35:41;21.30;47.10
49184;DHT22;35021;49.214;12.270;2023-04-24T05:38:12;21.40;47.20
49184;DHT22;35021;49.214;12.270;2023-04-24T05:40:39;21.30;47.20
49184;DHT22;35021;49.214;12.270;2023-04-24T05:43:06;21.30;47.40
49184;DHT22;35021;49.214;12.270;2023-04-24T05:45:33;21.20;47.50
49184;DHT22;35021;49.214;12.270;2023-04-24T05:48:03;21.10;47.60
49184;DHT22;35021;49.214;12.270;2023-04-24T05:50:30;21.10;47.70
49184;DHT22;35021;49.214;12.270;2023-04-24T05:52:57;21.10;47.70
49184;DHT22;35021;49.214;12.270;2023-04-24T05:55:29;21.10;47.80
49184;DHT22;35021;49.214;12.270;2023-04-24T05:57:56;21.10;47.70
49184;DHT22;35021;49.214;12.270;2023-04-24T06:00:24;21.20;47.70
49184;DHT22;35021;49.214;12.270;2023-04-24T06:02:51;21.20;47.60
49184;DHT22;35021;49.214;12.270;2023-04-24T06:05:20;21.30;47.60
49184;DHT22;35021;49.214;12.270;2023-04-24T06:07:47;21.30;47.50
49184;DHT22;35021;49.214;12.270;2023-04-24T06:10:14;21.40;47.30
49184;DHT22;35021;49.214;12.270;2023-04-24T06:12:42;21.50;47.10
49184;DHT22;35021;49.214;12.270;2023-04-24T06:15:09;21.50;46.90
49184;DHT22;35021;49.214;12.270;2023-04-24T06:17:36;21.50;46.80
49184;DHT22;35021;49.214;12.270;2023-04-24T06:20:04;21.60;46.70
49184;DHT22;35021;49.214;12.270;2023-04-24T06:22:33;21.60;46.60
49184;DHT22;35021;49.214;12.270;2023-04-24T06:25:00;21.60;46.60
49184;DHT22;35021;49.214;12.270;2023-04-24T06:27:28;21.60;46.60
49184;DHT22;35021;49.214;12.270;2023-04-24T06:29:55;21.60;46.70
49184;DHT22;35021;49.214;12.270;2023-04-24T06:32:23;21.50;46.80
49184;DHT22;35021;49.214;12.270;2023-04-24T06:34:52;21.50;46.80
49184;DHT22;35021;49.214;12.270;2023-04-24T06:37:20;21.50;46.90
49184;DHT22;35021;49.214;12.270;2023-04-24T06:39:47;21.50;46.90
49184;DHT22;35021;49.214;12.270;2023-04-24T06:42:14;21.50;46.90
49184;DHT22;35021;49.214;12.270;2023-04-24T06:44:41;21.50;47.00
49184;DHT22;35021;49.214;12.270;2023-04-24T06:47:09;21.60;46.90
49184;DHT22;35021;49.214;12.270;2023-04-24T06:49:37;21.60;46.80
49184;DHT22;35021;49.214;12.270;2023-04-24T06:52:05;21.70;46.70
49184;DHT22;35021;49.214;12.270;2023-04-24T06:54:32;21.70;46.60
49184;DHT22;35021;49.214;12.270;2023-04-24T06:57:00;21.80;46.50
49184;DHT22;35021;49.214;12.270;2023-04-24T06:59:28;21.80;46.40
49184;DHT22;35021;49.214;12.270;2023-04-24T07:01:56;21.90;46.30
49184;DHT22;35021;49.214;12.270;2023-04-24T07:04:24;21.90;46.20
49184;DHT22;35021;49.214;12.270;2023-04-24T07:06:52;21.90;46.10
49184;DHT22;35021;49.214;12.270;2023-04-24T07:09:24;21.90;46.10
49184;DHT22;35021;49.214;12.270;2023-04-24T07:11:52;21.90;46.10
49184;DHT22;35021;49.214;12.270;2023-04-24T07:14:20;21.90;46.20
49184;DHT22;35021;49.214;12.270;2023-04-24T07:16:47;21.80;46.30
49184;DHT22;35021;49.214;12.270;2023-04-24T07:19:14;21.70;46.50
49184;DHT22;35021;49.214;12.270;2023-04-24T07:21:41;21.70;46.70
49184;DHT22;35021;49.214;12.270;2023-04-24T07:24:08;21.60;46.80
49184;DHT22;35021;49.214;12.270;2023-04-24T07:26:40;21.50;46.90
49184;DHT22;35021;49.214;12.270;2023-04-24T07:29:07;21.50;47.10
49184;DHT22;35021;49.214;12.270;2023-04-24T07:31:34;21.50;47.10
49184;DHT22;35021;49.214;12.270;2023-04-24T07:34:02;21.60;47.20
49184;DHT22;35021;49.214;12.270;2023-04-24T07:36:29;21.50;47.20
49184;DHT22;35021;49.214;12.270;2023-04-24T07:38:56;21.50;47.20
49184;DHT22;35021;49.214;12.270;2023-04-24T07:41:23;21.60;47.20
49184;DHT22;35021;49.214;12.270;2023-04-24T07:43:51;21.50;47.10
49184;DHT22;35021;49.214;12.270;2023-04-24T07:46:20;21.60;47.10
49184;DHT22;35021;49.214;12.270;2023-04-24T07:48:47;21.60;47.10
49184;DHT22;35021;49.214;12.270;2023-04-24T07:51:32;21.60;47.50
49184;DHT22;35021;49.214;12.270;2023-04-24T07:54:05;21.60;47.10
49184;DHT22;35021;49.214;12.270;2023-04-24T07:56:35;21.50;47.10
49184;DHT22;35021;49.214;12.270;2023-04-24T07:59:05;21.50;47.20
49184;DHT22;35021;49.214;12.270;2023-04-24T08:01:32;21.40;47.30
49184;DHT22;35021;49.214;12.270;2023-04-24T08:03:59;21.30;47.30
49184;DHT22;35021;49.214;12.270;2023-04-24T08:06:28;21.30;47.50
49184;DHT22;35021;49.214;12.270;2023-04-24T08:08:57;21.30;47.60
49184;DHT22;35021;49.214;12.270;2023-04-24T08:11:28;21.20;47.60
49184;DHT22;35021;49.214;12.270;2023-04-24T08:13:55;21.30;47.60
49184;DHT22;35021;49.214;12.270;2023-04-24T08:16:22;21.20;47.60
49184;DHT22;35021;49.214;12.270;2023-04-24T08:18:51;21.30;47.70
49184;DHT22;35021;49.214;12.270;2023-04-24T08:21:18;21.30;47.70
49184;DHT22;35021;49.214;12.270;2023-04-24T08:23:46;21.40;47.90
49184;DHT22;35021;49.214;12.270;2023-04-24T08:26:13;21.40;47.80
49184;DHT22;35021;49.214;12.270;2023-04-24T08:28:40;21.50;47.70
49184;DHT22;35021;49.214;12.270;2023-04-24T08:31:07;21.50;47.40
49184;DHT22;35021;49.214;12.270;2023-04-24T08:33:34;21.50;47.30
49184;DHT22;35021;49.214;12.270;2023-04-24T08:36:04;21.50;47.10
49184;DHT22;35021;49.214;12.270;2023-04-24T08:38:31;21.50;47.10
49184;DHT22;35021;49.214;12.270;2023-04-24T08:40:59;21.50;47.10
49184;DHT22;35021;49.214;12.270;2023-04-24T08:43:27;21.50;46.80
49184;DHT22;35021;49.214;12.270;2023-04-24T08:45:56;21.50;46.20
49184;DHT22;35021;49.214;12.270;2023-04-24T08:48:24;21.50;45.70
49184;DHT22;35021;49.214;12.270;2023-04-24T08:50:58;21.40;45.10
49184;DHT22;35021;49.214;12.270;2023-04-24T08:53:26;21.40;44.70
49184;DHT22;35021;49.214;12.270;2023-04-24T08:55:55;21.40;44.40
49184;DHT22;35021;49.214;12.270;2023-04-24T08:58:25;21.40;44.10
49184;DHT22;35021;49.214;12.270;2023-04-24T09:00:54;21.50;44.10
49184;DHT22;35021;49.214;12.270;2023-04-24T09:03:22;21.50;44.20
49184;DHT22;35021;49.214;12.270;2023-04-24T09:05:50;21.50;44.20
49184;DHT22;35021;49.214;12.270;2023-04-24T09:08:18;21.50;44.30
49184;DHT22;35021;49.214;12.270;2023-04-24T09:10:46;21.50;44.30
49184;DHT22;35021;49.214;12.270;2023-04-24T09:13:18;21.60;44.40
49184;DHT22;35021;49.214;12.270;2023-04-24T09:15:46;21.60;44.40
49184;DHT22;35021;49.214;12.270;2023-04-24T09:18:13;21.70;44.40
49184;DHT22;35021;49.214;12.270;2023-04-24T09:21:03;21.70;44.40
49184;DHT22;35021;49.214;12.270;2023-04-24T09:23:31;21.80;44.40
49184;DHT22;35021;49.214;12.270;2023-04-24T09:26:00;21.90;44.20
49184;DHT22;35021;49.214;12.270;2023-04-24T09:28:33;22.00;44.10
49184;DHT22;35021;49.214;12.270;2023-04-24T09:33:36;22.10;43.80
49184;DHT22;35021;49.214;12.270;2023-04-24T09:36:03;22.20;43.50
49184;DHT22;35021;49.214;12.270;2023-04-24T09:38:32;22.30;43.40
49184;DHT22;35021;49.214;12.270;2023-04-24T09:41:12;22.30;43.10
49184;DHT22;35021;49.214;12.270;2023-04-24T09:43:39;22.40;42.90
49184;DHT22;35021;49.214;12.270;2023-04-24T09:46:07;22.50;42.80
49184;DHT22;35021;49.214;12.270;2023-04-24T09:48:37;22.60;42.70
49184;DHT22;35021;49.214;12.270;2023-04-24T09:51:05;22.60;42.50
49184;DHT22;35021;49.214;12.270;2023-04-24T09:53:38;22.70;42.50
49184;DHT22;35021;49.214;12.270;2023-04-24T09:56:08;22.70;42.30
49184;DHT22;35021;49.214;12.270;2023-04-24T09:58:36;22.80;42.10
49184;DHT22;35021;49.214;12.270;2023-04-24T10:01:03;22.80;42.00
49184;DHT22;35021;49.214;12.270;2023-04-24T10:03:31;22.90;41.80
49184;DHT22;35021;49.214;12.270;2023-04-24T10:05:59;22.90;41.70
49184;DHT22;35021;49.214;12.270;2023-04-24T10:08:26;23.00;41.50
49184;DHT22;35021;49.214;12.270;2023-04-24T10:10:59;23.10;41.30
49184;DHT22;35021;49.214;12.270;2023-04-24T10:13:28;23.10;41.00
49184;DHT22;35021;49.214;12.270;2023-04-24T10:15:56;23.10;40.70
49184;DHT22;35021;49.214;12.270;2023-04-24T10:18:23;23.10;40.60
49184;DHT22;35021;49.214;12.270;2023-04-24T10:20:50;23.20;40.60
49184;DHT22;35021;49.214;12.270;2023-04-24T10:23:19;23.10;40.50
49184;DHT22;35021;49.214;12.270;2023-04-24T10:25:46;23.10;40.50
49184;DHT22;35021;49.214;12.270;2023-04-24T10:28:14;23.10;40.50
49184;DHT22;35021;49.214;12.270;2023-04-24T10:30:43;23.00;40.50
49184;DHT22;35021;49.214;12.270;2023-04-24T10:33:11;22.90;40.50
49184;DHT22;35021;49.214;12.270;2023-04-24T10:35:45;22.80;40.50
49184;DHT22;35021;49.214;12.270;2023-04-24T10:38:22;22.80;40.70
49184;DHT22;35021;49.214;12.270;2023-04-24T10:40:50;22.70;40.80
49184;DHT22;35021;49.214;12.270;2023-04-24T10:43:18;22.70;41.00
49184;DHT22;35021;49.214;12.270;2023-04-24T10:46:02;22.70;41.00
49184;DHT22;35021;49.214;12.270;2023-04-24T10:48:30;22.70;41.00
49184;DHT22;35021;49.214;12.270;2023-04-24T10:50:58;22.70;40.90
49184;DHT22;35021;49.214;12.270;2023-04-24T10:53:30;22.70;40.90
49184;DHT22;35021;49.214;12.270;2023-04-24T10:56:08;22.70;40.80
49184;DHT22;35021;49.214;12.270;2023-04-24T10:58:44;22.70;40.80
49184;DHT22;35021;49.214;12.270;2023-04-24T11:01:32;22.80;40.60
49184;DHT22;35021;49.214;12.270;2023-04-24T11:04:02;22.80;40.50
49184;DHT22;35021;49.214;12.270;2023-04-24T11:06:37;22.80;40.50
49184;DHT22;35021;49.214;12.270;2023-04-24T11:09:06;22.80;40.60
49184;DHT22;35021;49.214;12.270;2023-04-24T11:11:36;22.80;40.60
49184;DHT22;35021;49.214;12.270;2023-04-24T11:14:05;22.80;40.50
49184;DHT22;35021;49.214;12.270;2023-04-24T11:16:53;22.80;40.40
49184;DHT22;35021;49.214;12.270;2023-04-24T11:19:23;22.80;40.50
49184;DHT22;35021;49.214;12.270;2023-04-24T11:21:58;22.70;40.50
49184;DHT22;35021;49.214;12.270;2023-04-24T11:24:39;22.60;40.50
49184;DHT22;35021;49.214;12.270;2023-04-24T11:27:14;22.60;40.60
49184;DHT22;35021;49.214;12.270;2023-04-24T11:32:29;22.60;40.80
49184;DHT22;35021;49.214;12.270;2023-04-24T11:34:59;22.60;40.80
49184;DHT22;35021;49.214;12.270;2023-04-24T11:37:37;22.60;40.60
49184;DHT22;35021;49.214;12.270;2023-04-24T11:40:07;22.60;40.40
49184;DHT22;35021;49.214;12.270;2023-04-24T11:42:35;22.70;40.30
49184;DHT22;35021;49.214;12.270;2023-04-24T11:45:08;22.70;40.20
49184;DHT22;35021;49.214;12.270;2023-04-24T11:47:36;22.80;40.00
49184;DHT22;35021;49.214;12.270;2023-04-24T11:50:05;22.80;39.90
49184;DHT22;35021;49.214;12.270;2023-04-24T11:52:37;22.80;39.80
49184;DHT22;35021;49.214;12.270;2023-04-24T11:55:06;22.80;39.60
49184;DHT22;35021;49.214;12.270;2023-04-24T11:57:33;22.90;39.60
49184;DHT22;35021;49.214;12.270;2023-04-24T12:00:02;22.90;39.50
49184;DHT22;35021;49.214;12.270;2023-04-24T12:02:31;22.90;39.60
49184;DHT22;35021;49.214;12.270;2023-04-24T12:04:58;22.90;39.60
49184;DHT22;35021;49.214;12.270;2023-04-24T12:07:25;22.90;39.70
49184;DHT22;35021;49.214;12.270;2023-04-24T12:09:56;22.90;39.70
49184;DHT22;35021;49.214;12.270;2023-04-24T12:12:25;22.90;39.70
49184;DHT22;35021;49.214;12.270;2023-04-24T12:17:29;22.90;39.80
49184;DHT22;35021;49.214;12.270;2023-04-24T12:20:01;22.90;39.90
49184;DHT22;35021;49.214;12.270;2023-04-24T12:25:13;22.80;39.90
49184;DHT22;35021;49.214;12.270;2023-04-24T12:27:41;22.70;39.80
49184;DHT22;35021;49.214;12.270;2023-04-24T12:30:14;22.70;39.80
49184;DHT22;35021;49.214;12.270;2023-04-24T12:32:48;22.60;39.80
49184;DHT22;35021;49.214;12.270;2023-04-24T12:35:20;22.50;39.80
49184;DHT22;35021;49.214;12.270;2023-04-24T12:37:47;22.50;40.00
49184;DHT22;35021;49.214;12.270;2023-04-24T12:40:16;22.40;40.10
49184;DHT22;35021;49.214;12.270;2023-04-24T12:42:48;22.40;40.20
49184;DHT22;35021;49.214;12.270;2023-04-24T12:45:17;22.30;40.20
49184;DHT22;35021;49.214;12.270;2023-04-24T12:47:46;22.40;40.30
49184;DHT22;35021;49.214;12.270;2023-04-24T12:50:14;22.40;40.20
49184;DHT22;35021;49.214;12.270;2023-04-24T12:52:42;22.40;40.00
49184;DHT22;35021;49.214;12.270;2023-04-24T12:55:10;22.50;39.90
49184;DHT22;35021;49.214;12.270;2023-04-24T12:57:39;22.60;39.70
49184;DHT22;35021;49.214;12.270;2023-04-24T13:00:08;22.60;39.70
49184;DHT22;35021;49.214;12.270;2023-04-24T13:02:36;22.70;39.50
49184;DHT22;35021;49.214;12.270;2023-04-24T13:05:04;22.80;39.20
49184;DHT22;35021;49.214;12.270;2023-04-24T13:07:32;22.90;39.00
49184;DHT22;35021;49.214;12.270;2023-04-24T13:09:59;22.90;38.60
49184;DHT22;35021;49.214;12.270;2023-04-24T13:12:25;23.00;38.20
49184;DHT22;35021;49.214;12.270;2023-04-24T13:14:53;23.10;38.00
49184;DHT22;35021;49.214;12.270;2023-04-24T13:17:21;23.10;37.80
49184;DHT22;35021;49.214;12.270;2023-04-24T13:19:50;23.10;37.50
49184;DHT22;35021;49.214;12.270;2023-04-24T13:22:18;23.10;37.60
49184;DHT22;35021;49.214;12.270;2023-04-24T13:24:48;23.10;37.70
49184;DHT22;35021;49.214;12.270;2023-04-24T13:27:17;23.20;38.50
49184;DHT22;35021;49.214;12.270;2023-04-24T13:29:44;23.20;37.80
49184;DHT22;35021;49.214;12.270;2023-04-24T13:32:11;23.10;37.90
49184;DHT22;35021;49.214;12.270;2023-04-24T13:34:39;23.10;37.90
49184;DHT22;35021;49.214;12.270;2023-04-24T13:37:06;23.10;38.00
49184;DHT22;35021;49.214;12.270;2023-04-24T13:39:35;23.10;38.10
49184;DHT22;35021;49.214;12.270;2023-04-24T13:42:02;23.10;38.10
49184;DHT22;35021;49.214;12.270;2023-04-24T13:44:31;23.10;38.20
49184;DHT22;35021;49.214;12.270;2023-04-24T13:46:58;23.00;38.10
49184;DHT22;35021;49.214;12.270;2023-04-24T13:49:25;23.00;38.00
49184;DHT22;35021;49.214;12.270;2023-04-24T13:51:54;23.00;38.00
49184;DHT22;35021;49.214;12.270;2023-04-24T13:54:21;22.90;38.00
49184;DHT22;35021;49.214;12.270;2023-04-24T13:56:51;22.80;37.90
49184;DHT22;35021;49.214;12.270;2023-04-24T13:59:19;22.80;38.00
49184;DHT22;35021;49.214;12.270;2023-04-24T14:01:47;22.70;38.10
49184;DHT22;35021;49.214;12.270;2023-04-24T14:04:15;22.70;38.20
49184;DHT22;35021;49.214;12.270;2023-04-24T14:06:43;22.60;38.30
49184;DHT22;35021;49.214;12.270;2023-04-24T14:09:10;22.60;38.30
49184;DHT22;35021;49.214;12.270;2023-04-24T14:11:37;22.50;38.30
49184;DHT22;35021;49.214;12.270;2023-04-24T14:14:04;22.40;38.30
49184;DHT22;35021;49.214;12.270;2023-04-24T14:16:31;22.40;38.40
49184;DHT22;35021;49.214;12.270;2023-04-24T14:18:59;22.30;38.50
49184;DHT22;35021;49.214;12.270;2023-04-24T14:21:26;22.30;39.30
49184;DHT22;35021;49.214;12.270;2023-04-24T14:23:54;22.30;38.80
49184;DHT22;35021;49.214;12.270;2023-04-24T14:26:21;22.30;38.70
49184;DHT22;35021;49.214;12.270;2023-04-24T14:28:48;22.30;38.60
49184;DHT22;35021;49.214;12.270;2023-04-24T14:31:16;22.30;38.50
49184;DHT22;35021;49.214;12.270;2023-04-24T14:33:43;22.40;38.40
49184;DHT22;35021;49.214;12.270;2023-04-24T14:36:10;22.50;38.30
49184;DHT22;35021;49.214;12.270;2023-04-24T14:38:37;22.50;38.20
49184;DHT22;35021;49.214;12.270;2023-04-24T14:41:04;22.60;38.10
49184;DHT22;35021;49.214;12.270;2023-04-24T14:43:40;22.60;37.90
49184;DHT22;35021;49.214;12.270;2023-04-24T14:46:07;22.70;37.70
49184;DHT22;35021;49.214;12.270;2023-04-24T14:48:33;22.80;37.70
49184;DHT22;35021;49.214;12.270;2023-04-24T14:51:01;22.90;37.50
49184;DHT22;35021;49.214;12.270;2023-04-24T14:53:28;22.90;37.40
49184;DHT22;35021;49.214;12.270;2023-04-24T14:55:55;23.00;37.20
49184;DHT22;35021;49.214;12.270;2023-04-24T14:58:22;23.10;37.10
49184;DHT22;35021;49.214;12.270;2023-04-24T15:00:48;23.10;37.00
49184;DHT22;35021;49.214;12.270;2023-04-24T15:03:20;23.10;37.50
49184;DHT22;35021;49.214;12.270;2023-04-24T15:05:49;23.10;36.70
49184;DHT22;35021;49.214;12.270;2023-04-24T15:08:16;23.20;36.70
49184;DHT22;35021;49.214;12.270;2023-04-24T15:10:43;23.20;36.60
49184;DHT22;35021;49.214;12.270;2023-04-24T15:13:10;23.20;36.60
49184;DHT22;35021;49.214;12.270;2023-04-24T15:15:37;23.20;36.60
49184;DHT22;35021;49.214;12.270;2023-04-24T15:18:08;23.10;37.30
49184;DHT22;35021;49.214;12.270;2023-04-24T15:20:37;23.10;36.50
49184;DHT22;35021;49.214;12.270;2023-04-24T15:23:07;23.10;36.60
49184;DHT22;35021;49.214;12.270;2023-04-24T15:25:34;23.10;36.70
49184;DHT22;35021;49.214;12.270;2023-04-24T15:28:01;23.00;36.70
49184;DHT22;35021;49.214;12.270;2023-04-24T15:30:29;23.00;36.80
49184;DHT22;35021;49.214;12.270;2023-04-24T15:32:57;22.90;36.90